sensor_id;sensor_type;location;lat;lon;timestamp;P1;durP1;ratioP1;P2;durP2;ratioP2
5507;SDS011;2776;51.046;6.772;2023-05-14T00:00:54;12.70;;;11.60;;
5507;SDS011;2776;51.046;6.772;2023-05-14T00:03:22;12.10;;;11.00;;
5507;SDS011;2776;51.046;6.772;2023-05-14T00:05:48;13.67;;;12.37;;
5507;SDS011;2776;51.046;6.772;2023-05-14T00:08:16;13.30;;;11.93;;
5507;SDS011;2776;51.046;6.772;2023-05-14T00:10:42;14.47;;;12.93;;
5507;SDS011;2776;51.046;6.772;2023-05-14T00:13:09;15.27;;;13.50;;
5507;SDS011;2776;51.046;6.772;2023-05-14T00:15:36;15.80;;;14.17;;
5507;SDS011;2776;51.046;6.772;2023-05-14T00:18:03;17.63;;;14.13;;
5507;SDS011;2776;51.046;6.772;2023-05-14T00:20:32;14.00;;;12.57;;
5507;SDS011;2776;51.046;6.772;2023-05-14T00:22:59;15.20;;;13.70;;
5507;SDS011;2776;51.046;6.772;2023-05-14T00:25:26;14.47;;;12.97;;
5507;SDS011;2776;51.046;6.772;2023-05-14T00:27:53;15.43;;;13.43;;
5507;SDS011;2776;51.046;6.772;2023-05-14T00:30:20;15.17;;;13.70;;
5507;SDS011;2776;51.046;6.772;2023-05-14T00:32:47;15.07;;;13.67;;
5507;SDS011;2776;51.046;6.772;2023-05-14T00:35:13;15.83;;;14.40;;
5507;SDS011;2776;51.046;6.772;2023-05-14T00:37:41;17.03;;;15.37;;
5507;SDS011;2776;51.046;6.772;2023-05-14T00:40:08;18.03;;;16.30;;
5507;SDS011;2776;51.046;6.772;2023-05-14T00:42:36;16.93;;;15.27;;
5507;SDS011;2776;51.046;6.772;2023-05-14T00:45:04;17.43;;;15.63;;
5507;SDS011;2776;51.046;6.772;2023-05-14T00:47:31;17.53;;;15.87;;
5507;SDS011;2776;51.046;6.772;2023-05-14T00:49:59;18.10;;;16.07;;
5507;SDS011;2776;51.046;6.772;2023-05-14T00:52:26;17.67;;;16.03;;
5507;SDS011;2776;51.046;6.772;2023-05-14T00:54:54;17.37;;;15.53;;
5507;SDS011;2776;51.046;6.772;2023-05-14T00:57:22;17.47;;;15.60;;
5507;SDS011;2776;51.046;6.772;2023-05-14T00:59:48;17.23;;;15.63;;
5507;SDS011;2776;51.046;6.772;2023-05-14T01:02:15;17.00;;;15.30;;
5507;SDS011;2776;51.046;6.772;2023-05-14T01:04:42;16.50;;;14.90;;
5507;SDS011;2776;51.046;6.772;2023-05-14T01:07:11;17.87;;;15.10;;
5507;SDS011;2776;51.046;6.772;2023-05-14T01:09:49;16.37;;;14.77;;
5507;SDS011;2776;51.046;6.772;2023-05-14T01:12:22;14.80;;;13.40;;
5507;SDS011;2776;51.046;6.772;2023-05-14T01:14:56;15.70;;;14.20;;
5507;SDS011;2776;51.046;6.772;2023-05-14T01:17:34;16.67;;;15.03;;
5507;SDS011;2776;51.046;6.772;2023-05-14T01:20:06;16.00;;;14.37;;
5507;SDS011;2776;51.046;6.772;2023-05-14T01:22:35;17.17;;;15.57;;
5507;SDS011;2776;51.046;6.772;2023-05-14T01:25:02;18.37;;;16.60;;
5507;SDS011;2776;51.046;6.772;2023-05-14T01:27:30;17.83;;;16.13;;
5507;SDS011;2776;51.046;6.772;2023-05-14T01:30:05;22.27;;;18.57;;
5507;SDS011;2776;51.046;6.772;2023-05-14T01:32:38;18.33;;;16.43;;
5507;SDS011;2776;51.046;6.772;2023-05-14T01:35:07;15.57;;;13.93;;
5507;SDS011;2776;51.046;6.772;2023-05-14T01:37:36;17.57;;;12.97;;
5507;SDS011;2776;51.046;6.772;2023-05-14T01:40:04;21.07;;;13.53;;
5507;SDS011;2776;51.046;6.772;2023-05-14T01:42:33;19.83;;;12.73;;
5507;SDS011;2776;51.046;6.772;2023-05-14T01:45:01;17.03;;;11.90;;
5507;SDS011;2776;51.046;6.772;2023-05-14T01:47:27;14.97;;;11.93;;
5507;SDS011;2776;51.046;6.772;2023-05-14T01:49:55;15.57;;;13.63;;
5507;SDS011;2776;51.046;6.772;2023-05-14T01:52:21;21.03;;;17.07;;
5507;SDS011;2776;51.046;6.772;2023-05-14T01:54:49;21.30;;;17.77;;
5507;SDS011;2776;51.046;6.772;2023-05-14T01:57:16;21.43;;;17.63;;
5507;SDS011;2776;51.046;6.772;2023-05-14T01:59:43;20.03;;;18.00;;
5507;SDS011;2776;51.046;6.772;2023-05-14T02:02:10;20.40;;;18.30;;
5507;SDS011;2776;51.046;6.772;2023-05-14T02:04:36;19.93;;;17.93;;
5507;SDS011;2776;51.046;6.772;2023-05-14T02:07:03;19.13;;;17.23;;
5507;SDS011;2776;51.046;6.772;2023-05-14T02:09:30;20.53;;;17.43;;
5507;SDS011;2776;51.046;6.772;2023-05-14T02:11:58;19.93;;;17.83;;
5507;SDS011;2776;51.046;6.772;2023-05-14T02:14:25;21.83;;;18.63;;
5507;SDS011;2776;51.046;6.772;2023-05-14T02:16:52;18.43;;;16.53;;
5507;SDS011;2776;51.046;6.772;2023-05-14T02:19:18;15.47;;;13.57;;
5507;SDS011;2776;51.046;6.772;2023-05-14T02:21:45;17.67;;;12.10;;
5507;SDS011;2776;51.046;6.772;2023-05-14T02:24:12;12.30;;;11.10;;
5507;SDS011;2776;51.046;6.772;2023-05-14T02:26:39;16.07;;;10.63;;
5507;SDS011;2776;51.046;6.772;2023-05-14T02:29:07;10.33;;;9.43;;
5507;SDS011;2776;51.046;6.772;2023-05-14T02:31:34;12.23;;;11.03;;
5507;SDS011;2776;51.046;6.772;2023-05-14T02:34:01;17.87;;;13.00;;
5507;SDS011;2776;51.046;6.772;2023-05-14T02:36:29;21.20;;;14.77;;
5507;SDS011;2776;51.046;6.772;2023-05-14T02:38:57;17.63;;;14.93;;
5507;SDS011;2776;51.046;6.772;2023-05-14T02:41:25;16.37;;;14.47;;
5507;SDS011;2776;51.046;6.772;2023-05-14T02:43:52;14.50;;;13.00;;
5507;SDS011;2776;51.046;6.772;2023-05-14T02:46:20;16.27;;;14.83;;
5507;SDS011;2776;51.046;6.772;2023-05-14T02:48:47;16.67;;;14.87;;
5507;SDS011;2776;51.046;6.772;2023-05-14T02:51:14;15.30;;;13.90;;
5507;SDS011;2776;51.046;6.772;2023-05-14T02:53:41;13.57;;;12.23;;
5507;SDS011;2776;51.046;6.772;2023-05-14T02:56:07;12.83;;;11.63;;
5507;SDS011;2776;51.046;6.772;2023-05-14T02:58:34;19.73;;;11.93;;
5507;SDS011;2776;51.046;6.772;2023-05-14T03:01:01;10.43;;;9.40;;
5507;SDS011;2776;51.046;6.772;2023-05-14T03:03:29;8.17;;;7.37;;
5507;SDS011;2776;51.046;6.772;2023-05-14T03:05:56;8.50;;;7.33;;
5507;SDS011;2776;51.046;6.772;2023-05-14T03:08:23;11.23;;;10.17;;
5507;SDS011;2776;51.046;6.772;2023-05-14T03:10:50;13.20;;;10.33;;
5507;SDS011;2776;51.046;6.772;2023-05-14T03:13:16;11.60;;;10.40;;
5507;SDS011;2776;51.046;6.772;2023-05-14T03:15:44;12.37;;;10.57;;
5507;SDS011;2776;51.046;6.772;2023-05-14T03:18:11;13.20;;;11.90;;
5507;SDS011;2776;51.046;6.772;2023-05-14T03:20:39;12.50;;;11.30;;
5507;SDS011;2776;51.046;6.772;2023-05-14T03:23:06;13.67;;;12.33;;
5507;SDS011;2776;51.046;6.772;2023-05-14T03:25:33;15.97;;;12.43;;
5507;SDS011;2776;51.046;6.772;2023-05-14T03:28:00;14.03;;;12.83;;
5507;SDS011;2776;51.046;6.772;2023-05-14T03:30:26;13.47;;;12.07;;
5507;SDS011;2776;51.046;6.772;2023-05-14T03:32:53;12.83;;;11.63;;
5507;SDS011;2776;51.046;6.772;2023-05-14T03:35:20;11.73;;;10.67;;
5507;SDS011;2776;51.046;6.772;2023-05-14T03:37:48;13.77;;;12.53;;
5507;SDS011;2776;51.046;6.772;2023-05-14T03:40:16;16.30;;;14.63;;
5507;SDS011;2776;51.046;6.772;2023-05-14T03:42:43;16.13;;;14.57;;
5507;SDS011;2776;51.046;6.772;2023-05-14T03:45:10;16.27;;;14.60;;
5507;SDS011;2776;51.046;6.772;2023-05-14T03:47:37;16.07;;;14.47;;
5507;SDS011;2776;51.046;6.772;2023-05-14T03:50:04;17.03;;;15.43;;
5507;SDS011;2776;51.046;6.772;2023-05-14T03:52:32;16.33;;;14.63;;
5507;SDS011;2776;51.046;6.772;2023-05-14T03:55:00;16.37;;;14.67;;
5507;SDS011;2776;51.046;6.772;2023-05-14T03:57:27;16.13;;;14.53;;
5507;SDS011;2776;51.046;6.772;2023-05-14T03:59:54;16.83;;;14.97;;
5507;SDS011;2776;51.046;6.772;2023-05-14T04:02:20;15.30;;;13.80;;
5507;SDS011;2776;51.046;6.772;2023-05-14T04:04:47;14.50;;;12.67;;
5507;SDS011;2776;51.046;6.772;2023-05-14T04:07:14;16.40;;;13.07;;
5507;SDS011;2776;51.046;6.772;2023-05-14T04:09:40;16.60;;;13.87;;
5507;SDS011;2776;51.046;6.772;2023-05-14T04:12:08;15.23;;;12.90;;
5507;SDS011;2776;51.046;6.772;2023-05-14T04:14:35;13.77;;;12.43;;
5507;SDS011;2776;51.046;6.772;2023-05-14T04:17:02;15.00;;;13.40;;
5507;SDS011;2776;51.046;6.772;2023-05-14T04:19:29;13.53;;;12.33;;
5507;SDS011;2776;51.046;6.772;2023-05-14T04:21:56;13.37;;;12.20;;
5507;SDS011;2776;51.046;6.772;2023-05-14T04:24:22;13.23;;;11.97;;
5507;SDS011;2776;51.046;6.772;2023-05-14T04:26:49;13.40;;;12.10;;
5507;SDS011;2776;51.046;6.772;2023-05-14T04:29:17;13.53;;;12.33;;
5507;SDS011;2776;51.046;6.772;2023-05-14T04:31:44;13.90;;;11.90;;
5507;SDS011;2776;51.046;6.772;2023-05-14T04:34:11;13.73;;;12.43;;
5507;SDS011;2776;51.046;6.772;2023-05-14T04:36:37;15.53;;;12.00;;
5507;SDS011;2776;51.046;6.772;2023-05-14T04:39:04;15.13;;;12.10;;
5507;SDS011;2776;51.046;6.772;2023-05-14T04:41:31;19.17;;;11.50;;
5507;SDS011;2776;51.046;6.772;2023-05-14T04:43:59;12.57;;;11.40;;
5507;SDS011;2776;51.046;6.772;2023-05-14T04:46:27;12.87;;;11.57;;
5507;SDS011;2776;51.046;6.772;2023-05-14T04:48:54;12.23;;;11.13;;
5507;SDS011;2776;51.046;6.772;2023-05-14T04:51:21;12.50;;;11.37;;
5507;SDS011;2776;51.046;6.772;2023-05-14T04:53:48;13.70;;;12.37;;
5507;SDS011;2776;51.046;6.772;2023-05-14T04:56:15;13.20;;;11.97;;
5507;SDS011;2776;51.046;6.772;2023-05-14T04:58:42;14.47;;;12.23;;
5507;SDS011;2776;51.046;6.772;2023-05-14T05:01:08;13.20;;;11.93;;
5507;SDS011;2776;51.046;6.772;2023-05-14T05:03:36;11.40;;;10.40;;
5507;SDS011;2776;51.046;6.772;2023-05-14T05:06:03;11.83;;;10.77;;
5507;SDS011;2776;51.046;6.772;2023-05-14T05:08:30;13.00;;;11.80;;
5507;SDS011;2776;51.046;6.772;2023-05-14T05:10:57;13.93;;;12.53;;
5507;SDS011;2776;51.046;6.772;2023-05-14T05:13:23;17.67;;;13.13;;
5507;SDS011;2776;51.046;6.772;2023-05-14T05:15:50;13.13;;;11.93;;
5507;SDS011;2776;51.046;6.772;2023-05-14T05:18:17;11.90;;;10.90;;
5507;SDS011;2776;51.046;6.772;2023-05-14T05:20:45;11.40;;;10.30;;
5507;SDS011;2776;51.046;6.772;2023-05-14T05:23:12;11.17;;;10.23;;
5507;SDS011;2776;51.046;6.772;2023-05-14T05:25:38;9.30;;;8.50;;
5507;SDS011;2776;51.046;6.772;2023-05-14T05:28:05;8.50;;;7.70;;
5507;SDS011;2776;51.046;6.772;2023-05-14T05:30:32;9.95;;;7.50;;
5507;SDS011;2776;51.046;6.772;2023-05-14T05:32:58;8.45;;;7.00;;
5507;SDS011;2776;51.046;6.772;2023-05-14T05:35:25;7.53;;;6.45;;
5507;SDS011;2776;51.046;6.772;2023-05-14T05:37:53;11.73;;;7.40;;
5507;SDS011;2776;51.046;6.772;2023-05-14T05:40:20;7.55;;;6.68;;
5507;SDS011;2776;51.046;6.772;2023-05-14T05:42:47;8.15;;;7.35;;
5507;SDS011;2776;51.046;6.772;2023-05-14T05:45:14;8.77;;;7.93;;
5507;SDS011;2776;51.046;6.772;2023-05-14T05:47:40;10.50;;;8.98;;
5507;SDS011;2776;51.046;6.772;2023-05-14T05:50:07;11.85;;;9.13;;
5507;SDS011;2776;51.046;6.772;2023-05-14T05:52:35;9.77;;;8.88;;
5507;SDS011;2776;51.046;6.772;2023-05-14T05:55:03;12.05;;;10.85;;
5507;SDS011;2776;51.046;6.772;2023-05-14T05:57:31;13.60;;;10.82;;
5507;SDS011;2776;51.046;6.772;2023-05-14T05:59:57;12.23;;;11.13;;
5507;SDS011;2776;51.046;6.772;2023-05-14T06:02:24;12.40;;;11.30;;
5507;SDS011;2776;51.046;6.772;2023-05-14T06:04:51;12.10;;;11.00;;
5507;SDS011;2776;51.046;6.772;2023-05-14T06:07:18;12.47;;;11.33;;
5507;SDS011;2776;51.046;6.772;2023-05-14T06:09:45;13.37;;;12.13;;
5507;SDS011;2776;51.046;6.772;2023-05-14T06:12:13;14.97;;;12.63;;
5507;SDS011;2776;51.046;6.772;2023-05-14T06:14:40;14.10;;;12.73;;
5507;SDS011;2776;51.046;6.772;2023-05-14T06:17:07;13.50;;;12.10;;
5507;SDS011;2776;51.046;6.772;2023-05-14T06:19:34;12.93;;;11.73;;
5507;SDS011;2776;51.046;6.772;2023-05-14T06:22:00;14.20;;;12.60;;
5507;SDS011;2776;51.046;6.772;2023-05-14T06:24:27;13.70;;;12.27;;
5507;SDS011;2776;51.046;6.772;2023-05-14T06:26:54;14.80;;;13.43;;
5507;SDS011;2776;51.046;6.772;2023-05-14T06:29:22;14.50;;;13.18;;
5507;SDS011;2776;51.046;6.772;2023-05-14T06:31:48;15.07;;;13.07;;
5507;SDS011;2776;51.046;6.772;2023-05-14T06:34:15;15.33;;;13.90;;
5507;SDS011;2776;51.046;6.772;2023-05-14T06:36:42;15.83;;;14.07;;
5507;SDS011;2776;51.046;6.772;2023-05-14T06:39:09;16.93;;;15.20;;
5507;SDS011;2776;51.046;6.772;2023-05-14T06:41:36;16.63;;;14.83;;
5507;SDS011;2776;51.046;6.772;2023-05-14T06:44:03;17.00;;;15.40;;
5507;SDS011;2776;51.046;6.772;2023-05-14T06:46:31;18.27;;;16.47;;
5507;SDS011;2776;51.046;6.772;2023-05-14T06:48:58;18.97;;;16.97;;
5507;SDS011;2776;51.046;6.772;2023-05-14T06:51:25;20.13;;;17.98;;
5507;SDS011;2776;51.046;6.772;2023-05-14T06:53:52;20.13;;;18.10;;
5507;SDS011;2776;51.046;6.772;2023-05-14T06:56:19;21.27;;;19.17;;
5507;SDS011;2776;51.046;6.772;2023-05-14T06:58:46;20.63;;;18.70;;
5507;SDS011;2776;51.046;6.772;2023-05-14T07:01:13;21.75;;;19.50;;
5507;SDS011;2776;51.046;6.772;2023-05-14T07:03:42;24.13;;;18.35;;
5507;SDS011;2776;51.046;6.772;2023-05-14T07:06:09;21.17;;;19.00;;
5507;SDS011;2776;51.046;6.772;2023-05-14T07:08:36;21.23;;;19.13;;
5507;SDS011;2776;51.046;6.772;2023-05-14T07:11:02;21.33;;;19.10;;
5507;SDS011;2776;51.046;6.772;2023-05-14T07:13:29;23.02;;;20.45;;
5507;SDS011;2776;51.046;6.772;2023-05-14T07:15:56;21.63;;;19.33;;
5507;SDS011;2776;51.046;6.772;2023-05-14T07:18:23;20.70;;;18.58;;
5507;SDS011;2776;51.046;6.772;2023-05-14T07:20:51;20.85;;;18.92;;
5507;SDS011;2776;51.046;6.772;2023-05-14T07:23:17;20.35;;;18.33;;
5507;SDS011;2776;51.046;6.772;2023-05-14T07:25:44;20.58;;;18.45;;
5507;SDS011;2776;51.046;6.772;2023-05-14T07:28:11;22.08;;;18.52;;
5507;SDS011;2776;51.046;6.772;2023-05-14T07:30:37;21.95;;;19.42;;
5507;SDS011;2776;51.046;6.772;2023-05-14T07:33:04;21.17;;;18.92;;
5507;SDS011;2776;51.046;6.772;2023-05-14T07:35:31;21.15;;;18.95;;
5507;SDS011;2776;51.046;6.772;2023-05-14T07:37:59;20.17;;;18.27;;
5507;SDS011;2776;51.046;6.772;2023-05-14T07:40:27;20.17;;;18.10;;
5507;SDS011;2776;51.046;6.772;2023-05-14T07:42:53;20.30;;;18.30;;
5507;SDS011;2776;51.046;6.772;2023-05-14T07:45:20;19.70;;;17.70;;
5507;SDS011;2776;51.046;6.772;2023-05-14T07:47:47;18.85;;;16.80;;
5507;SDS011;2776;51.046;6.772;2023-05-14T07:50:15;20.40;;;18.15;;
5507;SDS011;2776;51.046;6.772;2023-05-14T07:52:42;19.17;;;16.48;;
5507;SDS011;2776;51.046;6.772;2023-05-14T07:55:11;18.33;;;16.50;;
5507;SDS011;2776;51.046;6.772;2023-05-14T07:57:38;15.18;;;12.65;;
5507;SDS011;2776;51.046;6.772;2023-05-14T08:00:05;16.42;;;13.23;;
5507;SDS011;2776;51.046;6.772;2023-05-14T08:02:33;15.90;;;14.13;;
5507;SDS011;2776;51.046;6.772;2023-05-14T08:04:59;14.40;;;12.90;;
5507;SDS011;2776;51.046;6.772;2023-05-14T08:07:26;13.73;;;12.25;;
5507;SDS011;2776;51.046;6.772;2023-05-14T08:09:54;15.15;;;10.88;;
5507;SDS011;2776;51.046;6.772;2023-05-14T08:12:22;14.50;;;11.93;;
5507;SDS011;2776;51.046;6.772;2023-05-14T08:14:49;13.30;;;11.95;;
5507;SDS011;2776;51.046;6.772;2023-05-14T08:17:16;14.15;;;12.68;;
5507;SDS011;2776;51.046;6.772;2023-05-14T08:19:42;14.55;;;13.07;;
5507;SDS011;2776;51.046;6.772;2023-05-14T08:22:09;14.23;;;12.32;;
5507;SDS011;2776;51.046;6.772;2023-05-14T08:24:36;14.98;;;13.45;;
5507;SDS011;2776;51.046;6.772;2023-05-14T08:27:03;13.65;;;11.32;;
5507;SDS011;2776;51.046;6.772;2023-05-14T08:29:31;12.48;;;10.45;;
5507;SDS011;2776;51.046;6.772;2023-05-14T08:31:58;14.50;;;11.48;;
5507;SDS011;2776;51.046;6.772;2023-05-14T08:34:25;15.63;;;12.07;;
5507;SDS011;2776;51.046;6.772;2023-05-14T08:36:52;10.55;;;9.45;;
5507;SDS011;2776;51.046;6.772;2023-05-14T08:39:19;9.85;;;8.13;;
5507;SDS011;2776;51.046;6.772;2023-05-14T08:41:45;7.63;;;6.57;;
5507;SDS011;2776;51.046;6.772;2023-05-14T08:44:14;8.60;;;7.80;;
5507;SDS011;2776;51.046;6.772;2023-05-14T08:46:45;7.53;;;6.57;;
5507;SDS011;2776;51.046;6.772;2023-05-14T08:49:20;8.82;;;7.78;;
5507;SDS011;2776;51.046;6.772;2023-05-14T08:51:59;7.95;;;7.15;;
5507;SDS011;2776;51.046;6.772;2023-05-14T08:54:26;14.27;;;9.93;;
5507;SDS011;2776;51.046;6.772;2023-05-14T08:56:54;11.60;;;10.32;;
5507;SDS011;2776;51.046;6.772;2023-05-14T08:59:21;12.75;;;11.32;;
5507;SDS011;2776;51.046;6.772;2023-05-14T09:01:50;11.82;;;10.38;;
5507;SDS011;2776;51.046;6.772;2023-05-14T09:04:19;12.88;;;11.50;;
5507;SDS011;2776;51.046;6.772;2023-05-14T09:06:47;12.82;;;11.48;;
5507;SDS011;2776;51.046;6.772;2023-05-14T09:09:15;12.32;;;10.73;;
5507;SDS011;2776;51.046;6.772;2023-05-14T09:11:44;15.65;;;12.15;;
5507;SDS011;2776;51.046;6.772;2023-05-14T09:14:11;12.35;;;11.07;;
5507;SDS011;2776;51.046;6.772;2023-05-14T09:16:38;11.57;;;10.57;;
5507;SDS011;2776;51.046;6.772;2023-05-14T09:19:08;14.23;;;11.23;;
5507;SDS011;2776;51.046;6.772;2023-05-14T09:21:36;11.00;;;9.68;;
5507;SDS011;2776;51.046;6.772;2023-05-14T09:24:03;9.40;;;8.45;;
5507;SDS011;2776;51.046;6.772;2023-05-14T09:26:31;8.38;;;7.45;;
5507;SDS011;2776;51.046;6.772;2023-05-14T09:28:58;8.13;;;7.43;;
5507;SDS011;2776;51.046;6.772;2023-05-14T09:31:27;7.95;;;7.15;;
5507;SDS011;2776;51.046;6.772;2023-05-14T09:33:54;8.20;;;7.40;;
5507;SDS011;2776;51.046;6.772;2023-05-14T09:36:23;9.38;;;6.80;;
5507;SDS011;2776;51.046;6.772;2023-05-14T09:38:51;8.50;;;7.70;;
5507;SDS011;2776;51.046;6.772;2023-05-14T09:41:17;10.48;;;7.95;;
5507;SDS011;2776;51.046;6.772;2023-05-14T09:43:46;8.50;;;7.32;;
5507;SDS011;2776;51.046;6.772;2023-05-14T09:46:13;9.00;;;7.68;;
5507;SDS011;2776;51.046;6.772;2023-05-14T09:48:40;8.25;;;7.32;;
5507;SDS011;2776;51.046;6.772;2023-05-14T09:51:08;9.32;;;8.40;;
5507;SDS011;2776;51.046;6.772;2023-05-14T09:53:37;8.68;;;7.88;;
5507;SDS011;2776;51.046;6.772;2023-05-14T09:56:05;8.35;;;7.55;;
5507;SDS011;2776;51.046;6.772;2023-05-14T09:58:32;10.07;;;8.15;;
5507;SDS011;2776;51.046;6.772;2023-05-14T10:00:58;10.55;;;8.20;;
5507;SDS011;2776;51.046;6.772;2023-05-14T10:03:26;9.82;;;8.65;;
5507;SDS011;2776;51.046;6.772;2023-05-14T10:05:55;8.82;;;7.93;;
5507;SDS011;2776;51.046;6.772;2023-05-14T10:08:25;12.50;;;8.25;;
5507;SDS011;2776;51.046;6.772;2023-05-14T10:10:54;9.23;;;8.43;;
5507;SDS011;2776;51.046;6.772;2023-05-14T10:13:23;9.20;;;8.30;;
5507;SDS011;2776;51.046;6.772;2023-05-14T10:15:56;9.98;;;7.88;;
5507;SDS011;2776;51.046;6.772;2023-05-14T10:18:33;8.40;;;7.65;;
5507;SDS011;2776;51.046;6.772;2023-05-14T10:21:07;8.68;;;7.63;;
5507;SDS011;2776;51.046;6.772;2023-05-14T10:23:36;8.48;;;7.68;;
5507;SDS011;2776;51.046;6.772;2023-05-14T10:26:05;8.15;;;7.28;;
5507;SDS011;2776;51.046;6.772;2023-05-14T10:28:33;8.43;;;7.50;;
5507;SDS011;2776;51.046;6.772;2023-05-14T10:31:01;8.52;;;6.85;;
5507;SDS011;2776;51.046;6.772;2023-05-14T10:33:28;9.80;;;7.55;;
5507;SDS011;2776;51.046;6.772;2023-05-14T10:35:55;9.82;;;7.80;;
5507;SDS011;2776;51.046;6.772;2023-05-14T10:38:25;8.82;;;7.38;;
5507;SDS011;2776;51.046;6.772;2023-05-14T10:40:54;8.20;;;7.40;;
5507;SDS011;2776;51.046;6.772;2023-05-14T10:43:29;10.27;;;7.13;;
5507;SDS011;2776;51.046;6.772;2023-05-14T10:45:57;9.18;;;7.40;;
5507;SDS011;2776;51.046;6.772;2023-05-14T10:48:25;10.57;;;6.88;;
5507;SDS011;2776;51.046;6.772;2023-05-14T10:50:52;9.32;;;7.45;;
5507;SDS011;2776;51.046;6.772;2023-05-14T10:53:25;9.65;;;8.20;;
5507;SDS011;2776;51.046;6.772;2023-05-14T10:55:56;8.48;;;7.57;;
5507;SDS011;2776;51.046;6.772;2023-05-14T10:58:29;8.93;;;7.90;;
5507;SDS011;2776;51.046;6.772;2023-05-14T11:00:58;8.32;;;7.53;;
5507;SDS011;2776;51.046;6.772;2023-05-14T11:03:27;9.93;;;8.52;;
5507;SDS011;2776;51.046;6.772;2023-05-14T11:05:55;10.35;;;7.68;;
5507;SDS011;2776;51.046;6.772;2023-05-14T11:08:21;12.85;;;8.75;;
5507;SDS011;2776;51.046;6.772;2023-05-14T11:10:51;10.68;;;7.88;;
5507;SDS011;2776;51.046;6.772;2023-05-14T11:13:19;10.65;;;8.05;;
5507;SDS011;2776;51.046;6.772;2023-05-14T11:15:48;10.00;;;8.52;;
5507;SDS011;2776;51.046;6.772;2023-05-14T11:18:24;9.30;;;8.27;;
5507;SDS011;2776;51.046;6.772;2023-05-14T11:20:52;9.18;;;8.05;;
5507;SDS011;2776;51.046;6.772;2023-05-14T11:23:22;11.63;;;7.93;;
5507;SDS011;2776;51.046;6.772;2023-05-14T11:25:50;9.13;;;7.97;;
5507;SDS011;2776;51.046;6.772;2023-05-14T11:28:18;10.27;;;8.13;;
5507;SDS011;2776;51.046;6.772;2023-05-14T11:30:45;8.90;;;8.10;;
5507;SDS011;2776;51.046;6.772;2023-05-14T11:33:14;9.73;;;7.15;;
5507;SDS011;2776;51.046;6.772;2023-05-14T11:35:41;7.65;;;6.65;;
5507;SDS011;2776;51.046;6.772;2023-05-14T11:38:12;7.93;;;6.38;;
5507;SDS011;2776;51.046;6.772;2023-05-14T11:40:39;9.98;;;7.30;;
5507;SDS011;2776;51.046;6.772;2023-05-14T11:43:06;8.70;;;6.72;;
5507;SDS011;2776;51.046;6.772;2023-05-14T11:45:33;9.57;;;7.00;;
5507;SDS011;2776;51.046;6.772;2023-05-14T11:48:02;7.05;;;6.45;;
5507;SDS011;2776;51.046;6.772;2023-05-14T11:50:38;6.88;;;6.25;;
5507;SDS011;2776;51.046;6.772;2023-05-14T11:53:05;6.47;;;5.88;;
5507;SDS011;2776;51.046;6.772;2023-05-14T11:55:32;7.40;;;6.70;;
5507;SDS011;2776;51.046;6.772;2023-05-14T11:58:00;6.45;;;5.80;;
5507;SDS011;2776;51.046;6.772;2023-05-14T12:00:27;7.10;;;6.40;;
5507;SDS011;2776;51.046;6.772;2023-05-14T12:02:55;6.07;;;5.47;;
5507;SDS011;2776;51.046;6.772;2023-05-14T12:05:23;6.10;;;5.60;;
5507;SDS011;2776;51.046;6.772;2023-05-14T12:07:50;7.55;;;5.35;;
5507;SDS011;2776;51.046;6.772;2023-05-14T12:10:17;4.78;;;4.32;;
5507;SDS011;2776;51.046;6.772;2023-05-14T12:12:44;5.03;;;4.63;;
5507;SDS011;2776;51.046;6.772;2023-05-14T12:15:13;5.25;;;4.60;;
5507;SDS011;2776;51.046;6.772;2023-05-14T12:17:41;7.05;;;4.40;;
5507;SDS011;2776;51.046;6.772;2023-05-14T12:20:08;6.90;;;4.03;;
5507;SDS011;2776;51.046;6.772;2023-05-14T12:22:37;4.93;;;3.70;;
5507;SDS011;2776;51.046;6.772;2023-05-14T12:25:09;3.85;;;3.42;;
5507;SDS011;2776;51.046;6.772;2023-05-14T12:27:37;8.63;;;4.20;;
5507;SDS011;2776;51.046;6.772;2023-05-14T12:30:04;4.10;;;3.58;;
5507;SDS011;2776;51.046;6.772;2023-05-14T12:32:32;6.95;;;3.55;;
5507;SDS011;2776;51.046;6.772;2023-05-14T12:34:59;6.72;;;3.55;;
5507;SDS011;2776;51.046;6.772;2023-05-14T12:37:26;5.18;;;3.50;;
5507;SDS011;2776;51.046;6.772;2023-05-14T12:39:55;3.95;;;3.35;;
5507;SDS011;2776;51.046;6.772;2023-05-14T12:42:21;4.28;;;3.30;;
5507;SDS011;2776;51.046;6.772;2023-05-14T12:44:48;3.75;;;2.95;;
5507;SDS011;2776;51.046;6.772;2023-05-14T12:47:15;4.50;;;3.08;;
5507;SDS011;2776;51.046;6.772;2023-05-14T12:49:42;5.75;;;5.30;;
5507;SDS011;2776;51.046;6.772;2023-05-14T12:52:08;6.93;;;6.22;;
5507;SDS011;2776;51.046;6.772;2023-05-14T12:54:35;7.38;;;6.10;;
5507;SDS011;2776;51.046;6.772;2023-05-14T12:57:05;8.00;;;6.03;;
5507;SDS011;2776;51.046;6.772;2023-05-14T12:59:32;6.85;;;6.15;;
5507;SDS011;2776;51.046;6.772;2023-05-14T13:01:59;6.70;;;5.97;;
5507;SDS011;2776;51.046;6.772;2023-05-14T13:04:26;7.45;;;5.85;;
5507;SDS011;2776;51.046;6.772;2023-05-14T13:06:53;6.88;;;6.18;;
5507;SDS011;2776;51.046;6.772;2023-05-14T13:09:20;8.10;;;5.72;;
5507;SDS011;2776;51.046;6.772;2023-05-14T13:11:46;6.85;;;4.72;;
5507;SDS011;2776;51.046;6.772;2023-05-14T13:14:14;4.60;;;4.05;;
5507;SDS011;2776;51.046;6.772;2023-05-14T13:16:41;5.68;;;4.07;;
5507;SDS011;2776;51.046;6.772;2023-05-14T13:19:08;4.68;;;4.20;;
5507;SDS011;2776;51.046;6.772;2023-05-14T13:21:35;5.57;;;3.92;;
5507;SDS011;2776;51.046;6.772;2023-05-14T13:24:01;4.40;;;3.55;;
5507;SDS011;2776;51.046;6.772;2023-05-14T13:26:28;4.22;;;2.42;;
5507;SDS011;2776;51.046;6.772;2023-05-14T13:28:55;4.50;;;2.10;;
5507;SDS011;2776;51.046;6.772;2023-05-14T13:31:23;4.75;;;2.28;;
5507;SDS011;2776;51.046;6.772;2023-05-14T13:33:50;2.47;;;2.25;;
5507;SDS011;2776;51.046;6.772;2023-05-14T13:36:17;4.10;;;2.25;;
5507;SDS011;2776;51.046;6.772;2023-05-14T13:38:43;2.45;;;2.00;;
5507;SDS011;2776;51.046;6.772;2023-05-14T13:41:10;3.28;;;2.10;;
5507;SDS011;2776;51.046;6.772;2023-05-14T13:43:37;3.85;;;1.92;;
5507;SDS011;2776;51.046;6.772;2023-05-14T13:46:04;2.70;;;2.50;;
5507;SDS011;2776;51.046;6.772;2023-05-14T13:48:33;2.50;;;2.00;;
5507;SDS011;2776;51.046;6.772;2023-05-14T13:51:01;2.45;;;2.25;;
5507;SDS011;2776;51.046;6.772;2023-05-14T13:53:28;3.15;;;2.42;;
5507;SDS011;2776;51.046;6.772;2023-05-14T13:55:55;3.05;;;2.33;;
5507;SDS011;2776;51.046;6.772;2023-05-14T13:58:22;5.53;;;2.92;;
5507;SDS011;2776;51.046;6.772;2023-05-14T14:00:49;4.55;;;3.33;;
5507;SDS011;2776;51.046;6.772;2023-05-14T14:03:16;3.50;;;2.47;;
5507;SDS011;2776;51.046;6.772;2023-05-14T14:05:44;4.97;;;2.88;;
5507;SDS011;2776;51.046;6.772;2023-05-14T14:08:11;3.08;;;2.10;;
5507;SDS011;2776;51.046;6.772;2023-05-14T14:10:38;3.10;;;2.03;;
5507;SDS011;2776;51.046;6.772;2023-05-14T14:13:06;3.15;;;2.08;;
5507;SDS011;2776;51.046;6.772;2023-05-14T14:15:33;2.55;;;1.90;;
5507;SDS011;2776;51.046;6.772;2023-05-14T14:18:00;2.20;;;2.10;;
5507;SDS011;2776;51.046;6.772;2023-05-14T14:20:27;4.18;;;2.55;;
5507;SDS011;2776;51.046;6.772;2023-05-14T14:22:56;3.05;;;2.10;;
5507;SDS011;2776;51.046;6.772;2023-05-14T14:25:23;4.25;;;2.00;;
5507;SDS011;2776;51.046;6.772;2023-05-14T14:27:50;2.30;;;2.10;;
5507;SDS011;2776;51.046;6.772;2023-05-14T14:30:17;2.30;;;2.10;;
5507;SDS011;2776;51.046;6.772;2023-05-14T14:32:44;2.03;;;1.90;;
5507;SDS011;2776;51.046;6.772;2023-05-14T14:35:11;3.47;;;1.85;;
5507;SDS011;2776;51.046;6.772;2023-05-14T14:37:39;2.85;;;2.20;;
5507;SDS011;2776;51.046;6.772;2023-05-14T14:40:09;5.70;;;2.35;;
5507;SDS011;2776;51.046;6.772;2023-05-14T14:42:37;4.80;;;2.60;;
5507;SDS011;2776;51.046;6.772;2023-05-14T14:45:04;4.25;;;2.33;;
5507;SDS011;2776;51.046;6.772;2023-05-14T14:47:31;5.30;;;2.40;;
5507;SDS011;2776;51.046;6.772;2023-05-14T14:49:58;3.47;;;2.30;;
5507;SDS011;2776;51.046;6.772;2023-05-14T14:52:25;3.55;;;2.60;;
5507;SDS011;2776;51.046;6.772;2023-05-14T14:54:52;3.95;;;2.47;;
5507;SDS011;2776;51.046;6.772;2023-05-14T14:57:20;7.13;;;2.30;;
5507;SDS011;2776;51.046;6.772;2023-05-14T14:59:47;4.68;;;2.33;;
5507;SDS011;2776;51.046;6.772;2023-05-14T15:02:14;3.75;;;2.35;;